sensor_id;sensor_type;location;lat;lon;timestamp;P1;durP1;ratioP1;P2;durP2;ratioP2
43986;SDS011;29650;47.378;8.300;2023-07-29T00:01:37;9.40;;;5.25;;
43986;SDS011;29650;47.378;8.300;2023-07-29T00:04:06;19.08;;;5.07;;
43986;SDS011;29650;47.378;8.300;2023-07-29T00:06:34;43.00;;;6.05;;
43986;SDS011;29650;47.378;8.300;2023-07-29T00:09:01;70.88;;;5.63;;
43986;SDS011;29650;47.378;8.300;2023-07-29T00:11:29;88.63;;;5.85;;
43986;SDS011;29650;47.378;8.300;2023-07-29T00:14:00;11.77;;;3.72;;
43986;SDS011;29650;47.378;8.300;2023-07-29T00:16:27;75.33;;;6.00;;
43986;SDS011;29650;47.378;8.300;2023-07-29T00:18:54;72.15;;;4.78;;
43986;SDS011;29650;47.378;8.300;2023-07-29T00:21:21;35.25;;;4.32;;
43986;SDS011;29650;47.378;8.300;2023-07-29T00:23:48;4.50;;;3.22;;
43986;SDS011;29650;47.378;8.300;2023-07-29T00:26:15;13.65;;;4.38;;
43986;SDS011;29650;47.378;8.300;2023-07-29T00:28:42;54.50;;;3.88;;
43986;SDS011;29650;47.378;8.300;2023-07-29T00:31:10;36.55;;;4.05;;
43986;SDS011;29650;47.378;8.300;2023-07-29T00:33:37;159.40;;;6.90;;
43986;SDS011;29650;47.378;8.300;2023-07-29T00:36:04;53.63;;;5.68;;
43986;SDS011;29650;47.378;8.300;2023-07-29T00:38:31;42.72;;;4.45;;
43986;SDS011;29650;47.378;8.300;2023-07-29T00:40:58;20.83;;;4.75;;
43986;SDS011;29650;47.378;8.300;2023-07-29T00:43:30;58.10;;;5.57;;
43986;SDS011;29650;47.378;8.300;2023-07-29T00:45:57;48.35;;;5.78;;
43986;SDS011;29650;47.378;8.300;2023-07-29T00:48:25;27.00;;;4.90;;
43986;SDS011;29650;47.378;8.300;2023-07-29T00:50:52;13.50;;;4.40;;
43986;SDS011;29650;47.378;8.300;2023-07-29T00:53:20;30.52;;;4.85;;
43986;SDS011;29650;47.378;8.300;2023-07-29T00:55:47;53.42;;;6.00;;
43986;SDS011;29650;47.378;8.300;2023-07-29T00:58:14;47.42;;;5.65;;
43986;SDS011;29650;47.378;8.300;2023-07-29T01:00:41;101.63;;;6.03;;
43986;SDS011;29650;47.378;8.300;2023-07-29T01:03:08;145.27;;;8.07;;
43986;SDS011;29650;47.378;8.300;2023-07-29T01:05:39;26.75;;;4.25;;
43986;SDS011;29650;47.378;8.300;2023-07-29T01:08:16;7.55;;;4.78;;
43986;SDS011;29650;47.378;8.300;2023-07-29T01:10:50;40.47;;;5.70;;
43986;SDS011;29650;47.378;8.300;2023-07-29T01:13:26;20.67;;;4.80;;
43986;SDS011;29650;47.378;8.300;2023-07-29T01:15:58;30.70;;;5.47;;
43986;SDS011;29650;47.378;8.300;2023-07-29T01:18:29;38.75;;;5.40;;
43986;SDS011;29650;47.378;8.300;2023-07-29T01:20:59;70.05;;;6.07;;
43986;SDS011;29650;47.378;8.300;2023-07-29T01:23:31;29.58;;;5.18;;
43986;SDS011;29650;47.378;8.300;2023-07-29T01:26:00;20.02;;;4.70;;
43986;SDS011;29650;47.378;8.300;2023-07-29T01:28:27;53.53;;;4.93;;
43986;SDS011;29650;47.378;8.300;2023-07-29T01:30:57;52.80;;;5.28;;
43986;SDS011;29650;47.378;8.300;2023-07-29T01:33:30;12.70;;;4.82;;
43986;SDS011;29650;47.378;8.300;2023-07-29T01:36:06;7.32;;;4.85;;
43986;SDS011;29650;47.378;8.300;2023-07-29T01:38:38;11.75;;;4.70;;
43986;SDS011;29650;47.378;8.300;2023-07-29T01:41:08;22.15;;;6.18;;
43986;SDS011;29650;47.378;8.300;2023-07-29T01:43:36;25.25;;;6.03;;
43986;SDS011;29650;47.378;8.300;2023-07-29T01:46:09;11.02;;;6.38;;
43986;SDS011;29650;47.378;8.300;2023-07-29T01:48:37;11.07;;;6.03;;
43986;SDS011;29650;47.378;8.300;2023-07-29T01:51:04;21.45;;;5.70;;
43986;SDS011;29650;47.378;8.300;2023-07-29T01:53:31;7.18;;;6.07;;
43986;SDS011;29650;47.378;8.300;2023-07-29T01:56:00;10.20;;;6.47;;
43986;SDS011;29650;47.378;8.300;2023-07-29T01:58:28;6.95;;;5.35;;
43986;SDS011;29650;47.378;8.300;2023-07-29T02:00:55;6.45;;;5.65;;
43986;SDS011;29650;47.378;8.300;2023-07-29T02:03:22;6.38;;;5.63;;
43986;SDS011;29650;47.378;8.300;2023-07-29T02:05:49;8.85;;;6.35;;
43986;SDS011;29650;47.378;8.300;2023-07-29T02:08:16;11.48;;;5.53;;
43986;SDS011;29650;47.378;8.300;2023-07-29T02:10:43;14.57;;;5.25;;
43986;SDS011;29650;47.378;8.300;2023-07-29T02:13:11;29.38;;;6.07;;
43986;SDS011;29650;47.378;8.300;2023-07-29T02:15:38;79.17;;;8.33;;
43986;SDS011;29650;47.378;8.300;2023-07-29T02:18:05;22.42;;;6.38;;
43986;SDS011;29650;47.378;8.300;2023-07-29T02:20:32;55.42;;;7.93;;
43986;SDS011;29650;47.378;8.300;2023-07-29T02:22:59;43.92;;;7.60;;
43986;SDS011;29650;47.378;8.300;2023-07-29T02:25:26;20.20;;;5.93;;
43986;SDS011;29650;47.378;8.300;2023-07-29T02:27:53;130.23;;;10.45;;
43986;SDS011;29650;47.378;8.300;2023-07-29T02:30:22;115.03;;;9.50;;
43986;SDS011;29650;47.378;8.300;2023-07-29T02:32:48;24.45;;;7.22;;
43986;SDS011;29650;47.378;8.300;2023-07-29T02:35:15;45.85;;;8.32;;
43986;SDS011;29650;47.378;8.300;2023-07-29T02:37:42;8.75;;;6.35;;
43986;SDS011;29650;47.378;8.300;2023-07-29T02:40:10;11.68;;;6.05;;
43986;SDS011;29650;47.378;8.300;2023-07-29T02:47:36;4.93;;;3.85;;
43986;SDS011;29650;47.378;8.300;2023-07-29T02:50:03;7.72;;;4.85;;
43986;SDS011;29650;47.378;8.300;2023-07-29T02:52:30;13.18;;;5.15;;
43986;SDS011;29650;47.378;8.300;2023-07-29T02:54:57;11.45;;;6.60;;
43986;SDS011;29650;47.378;8.300;2023-07-29T02:57:24;12.95;;;7.28;;
43986;SDS011;29650;47.378;8.300;2023-07-29T03:02:18;9.40;;;6.72;;
43986;SDS011;29650;47.378;8.300;2023-07-29T03:04:46;28.95;;;6.45;;
43986;SDS011;29650;47.378;8.300;2023-07-29T03:07:14;28.00;;;6.03;;
43986;SDS011;29650;47.378;8.300;2023-07-29T03:09:41;6.65;;;5.68;;
43986;SDS011;29650;47.378;8.300;2023-07-29T03:12:09;6.20;;;5.60;;
43986;SDS011;29650;47.378;8.300;2023-07-29T03:14:36;6.97;;;5.60;;
43986;SDS011;29650;47.378;8.300;2023-07-29T03:17:03;6.65;;;5.50;;
43986;SDS011;29650;47.378;8.300;2023-07-29T03:19:31;5.20;;;4.70;;
43986;SDS011;29650;47.378;8.300;2023-07-29T03:21:59;7.05;;;5.47;;
43986;SDS011;29650;47.378;8.300;2023-07-29T03:24:26;4.70;;;4.20;;
43986;SDS011;29650;47.378;8.300;2023-07-29T03:26:54;7.45;;;4.78;;
43986;SDS011;29650;47.378;8.300;2023-07-29T03:29:21;4.85;;;4.35;;
43986;SDS011;29650;47.378;8.300;2023-07-29T03:31:48;5.95;;;3.53;;
43986;SDS011;29650;47.378;8.300;2023-07-29T03:34:14;5.53;;;3.85;;
43986;SDS011;29650;47.378;8.300;2023-07-29T03:36:41;5.05;;;4.55;;
43986;SDS011;29650;47.378;8.300;2023-07-29T03:39:12;3.78;;;3.40;;
43986;SDS011;29650;47.378;8.300;2023-07-29T03:41:39;4.27;;;3.40;;
43986;SDS011;29650;47.378;8.300;2023-07-29T03:44:06;4.25;;;3.85;;
43986;SDS011;29650;47.378;8.300;2023-07-29T03:46:33;5.43;;;4.20;;
43986;SDS011;29650;47.378;8.300;2023-07-29T03:49:00;5.88;;;4.32;;
43986;SDS011;29650;47.378;8.300;2023-07-29T03:51:30;6.28;;;4.60;;
43986;SDS011;29650;47.378;8.300;2023-07-29T03:53:57;9.05;;;5.07;;
43986;SDS011;29650;47.378;8.300;2023-07-29T03:56:25;6.80;;;5.22;;
43986;SDS011;29650;47.378;8.300;2023-07-29T03:58:52;5.70;;;5.10;;
43986;SDS011;29650;47.378;8.300;2023-07-29T04:01:19;6.60;;;4.80;;
43986;SDS011;29650;47.378;8.300;2023-07-29T04:03:46;4.07;;;3.75;;
43986;SDS011;29650;47.378;8.300;2023-07-29T04:06:13;8.73;;;4.90;;
43986;SDS011;29650;47.378;8.300;2023-07-29T04:08:40;4.30;;;3.90;;
43986;SDS011;29650;47.378;8.300;2023-07-29T04:11:07;9.07;;;4.80;;
43986;SDS011;29650;47.378;8.300;2023-07-29T04:13:36;6.50;;;4.57;;
43986;SDS011;29650;47.378;8.300;2023-07-29T04:16:03;5.30;;;4.50;;
43986;SDS011;29650;47.378;8.300;2023-07-29T04:18:30;5.97;;;5.38;;
43986;SDS011;29650;47.378;8.300;2023-07-29T04:20:57;4.93;;;4.43;;
43986;SDS011;29650;47.378;8.300;2023-07-29T04:23:24;6.35;;;4.60;;
43986;SDS011;29650;47.378;8.300;2023-07-29T04:25:51;5.22;;;4.65;;
43986;SDS011;29650;47.378;8.300;2023-07-29T04:28:18;5.97;;;4.82;;
43986;SDS011;29650;47.378;8.300;2023-07-29T04:30:47;4.60;;;4.18;;
43986;SDS011;29650;47.378;8.300;2023-07-29T04:33:14;4.82;;;3.90;;
43986;SDS011;29650;47.378;8.300;2023-07-29T04:35:41;4.47;;;3.38;;
43986;SDS011;29650;47.378;8.300;2023-07-29T04:38:08;5.93;;;4.95;;
43986;SDS011;29650;47.378;8.300;2023-07-29T04:40:34;6.47;;;4.00;;
43986;SDS011;29650;47.378;8.300;2023-07-29T04:43:01;6.47;;;3.92;;
43986;SDS011;29650;47.378;8.300;2023-07-29T04:45:29;6.00;;;5.20;;
43986;SDS011;29650;47.378;8.300;2023-07-29T04:47:58;5.63;;;5.03;;
43986;SDS011;29650;47.378;8.300;2023-07-29T04:50:25;5.00;;;4.43;;
43986;SDS011;29650;47.378;8.300;2023-07-29T04:52:52;8.60;;;4.50;;
43986;SDS011;29650;47.378;8.300;2023-07-29T04:55:19;11.95;;;6.82;;
43986;SDS011;29650;47.378;8.300;2023-07-29T04:57:46;8.45;;;5.65;;
43986;SDS011;29650;47.378;8.300;2023-07-29T05:00:16;6.18;;;5.25;;
43986;SDS011;29650;47.378;8.300;2023-07-29T05:02:43;5.03;;;4.18;;
43986;SDS011;29650;47.378;8.300;2023-07-29T05:05:11;4.78;;;3.88;;
43986;SDS011;29650;47.378;8.300;2023-07-29T05:07:38;3.75;;;3.45;;
43986;SDS011;29650;47.378;8.300;2023-07-29T05:10:06;5.78;;;3.97;;
43986;SDS011;29650;47.378;8.300;2023-07-29T05:12:34;4.43;;;4.03;;
43986;SDS011;29650;47.378;8.300;2023-07-29T05:15:01;4.22;;;3.83;;
43986;SDS011;29650;47.378;8.300;2023-07-29T05:17:28;4.65;;;4.18;;
43986;SDS011;29650;47.378;8.300;2023-07-29T05:19:55;3.50;;;3.20;;
43986;SDS011;29650;47.378;8.300;2023-07-29T05:22:23;5.07;;;3.60;;
43986;SDS011;29650;47.378;8.300;2023-07-29T05:24:50;5.82;;;3.65;;
43986;SDS011;29650;47.378;8.300;2023-07-29T05:27:17;4.95;;;4.00;;
43986;SDS011;29650;47.378;8.300;2023-07-29T05:29:44;5.03;;;4.00;;
43986;SDS011;29650;47.378;8.300;2023-07-29T05:32:11;6.18;;;4.50;;
43986;SDS011;29650;47.378;8.300;2023-07-29T05:34:38;5.68;;;4.43;;
43986;SDS011;29650;47.378;8.300;2023-07-29T05:37:05;4.43;;;4.03;;
43986;SDS011;29650;47.378;8.300;2023-07-29T05:39:33;4.95;;;3.65;;
43986;SDS011;29650;47.378;8.300;2023-07-29T05:42:00;5.03;;;3.72;;
43986;SDS011;29650;47.378;8.300;2023-07-29T05:44:28;5.07;;;3.92;;
43986;SDS011;29650;47.378;8.300;2023-07-29T05:46:55;4.43;;;3.50;;
43986;SDS011;29650;47.378;8.300;2023-07-29T05:49:23;4.10;;;3.70;;
43986;SDS011;29650;47.378;8.300;2023-07-29T05:51:50;6.10;;;3.22;;
43986;SDS011;29650;47.378;8.300;2023-07-29T05:54:18;5.28;;;3.88;;
43986;SDS011;29650;47.378;8.300;2023-07-29T05:56:46;5.18;;;3.25;;
43986;SDS011;29650;47.378;8.300;2023-07-29T05:59:13;7.65;;;3.47;;
43986;SDS011;29650;47.378;8.300;2023-07-29T06:01:40;3.53;;;2.97;;
43986;SDS011;29650;47.378;8.300;2023-07-29T06:04:07;4.05;;;3.30;;
43986;SDS011;29650;47.378;8.300;2023-07-29T06:06:34;5.05;;;3.75;;
43986;SDS011;29650;47.378;8.300;2023-07-29T06:09:01;4.22;;;3.83;;
43986;SDS011;29650;47.378;8.300;2023-07-29T06:11:28;4.88;;;3.70;;
43986;SDS011;29650;47.378;8.300;2023-07-29T06:16:23;3.88;;;3.03;;
43986;SDS011;29650;47.378;8.300;2023-07-29T07:42:08;6.95;;;4.30;;
43986;SDS011;29650;47.378;8.300;2023-07-29T07:44:35;6.35;;;4.07;;
43986;SDS011;29650;47.378;8.300;2023-07-29T07:47:02;5.75;;;3.88;;
43986;SDS011;29650;47.378;8.300;2023-07-29T07:49:29;5.95;;;3.75;;
43986;SDS011;29650;47.378;8.300;2023-07-29T07:51:56;7.53;;;3.92;;
43986;SDS011;29650;47.378;8.300;2023-07-29T07:54:23;5.95;;;3.88;;
43986;SDS011;29650;47.378;8.300;2023-07-29T07:56:51;5.13;;;3.85;;
43986;SDS011;29650;47.378;8.300;2023-07-29T07:59:18;5.10;;;3.75;;
43986;SDS011;29650;47.378;8.300;2023-07-29T08:01:45;4.72;;;3.88;;
43986;SDS011;29650;47.378;8.300;2023-07-29T08:04:12;5.07;;;3.67;;
43986;SDS011;29650;47.378;8.300;2023-07-29T08:06:39;4.65;;;3.33;;
43986;SDS011;29650;47.378;8.300;2023-07-29T08:09:06;6.97;;;4.43;;
43986;SDS011;29650;47.378;8.300;2023-07-29T08:11:33;5.40;;;3.85;;
43986;SDS011;29650;47.378;8.300;2023-07-29T08:14:01;6.18;;;3.95;;
43986;SDS011;29650;47.378;8.300;2023-07-29T08:16:28;7.90;;;4.30;;
43986;SDS011;29650;47.378;8.300;2023-07-29T08:18:55;6.72;;;4.18;;
43986;SDS011;29650;47.378;8.300;2023-07-29T08:21:22;4.05;;;3.58;;
43986;SDS011;29650;47.378;8.300;2023-07-29T08:23:49;5.22;;;3.90;;
43986;SDS011;29650;47.378;8.300;2023-07-29T08:26:16;7.00;;;3.78;;
43986;SDS011;29650;47.378;8.300;2023-07-29T08:28:43;7.43;;;4.43;;
43986;SDS011;29650;47.378;8.300;2023-07-29T08:31:11;5.85;;;4.25;;
43986;SDS011;29650;47.378;8.300;2023-07-29T08:33:38;6.90;;;4.68;;
43986;SDS011;29650;47.378;8.300;2023-07-29T08:36:05;6.97;;;4.50;;
43986;SDS011;29650;47.378;8.300;2023-07-29T08:38:32;5.75;;;4.40;;
43986;SDS011;29650;47.378;8.300;2023-07-29T08:41:04;7.20;;;4.70;;
43986;SDS011;29650;47.378;8.300;2023-07-29T08:43:37;6.82;;;4.38;;
43986;SDS011;29650;47.378;8.300;2023-07-29T08:46:05;8.10;;;4.53;;
43986;SDS011;29650;47.378;8.300;2023-07-29T08:48:39;6.80;;;4.87;;
43986;SDS011;29650;47.378;8.300;2023-07-29T08:51:08;6.50;;;4.30;;
43986;SDS011;29650;47.378;8.300;2023-07-29T08:53:35;7.55;;;4.20;;
43986;SDS011;29650;47.378;8.300;2023-07-29T08:56:10;4.60;;;3.85;;
43986;SDS011;29650;47.378;8.300;2023-07-29T08:58:37;5.22;;;3.97;;
43986;SDS011;29650;47.378;8.300;2023-07-29T09:01:06;3.83;;;3.20;;
43986;SDS011;29650;47.378;8.300;2023-07-29T09:03:34;5.85;;;3.95;;
43986;SDS011;29650;47.378;8.300;2023-07-29T09:06:01;4.40;;;3.20;;
43986;SDS011;29650;47.378;8.300;2023-07-29T09:08:30;4.35;;;2.90;;
43986;SDS011;29650;47.378;8.300;2023-07-29T09:10:58;3.80;;;3.05;;
43986;SDS011;29650;47.378;8.300;2023-07-29T09:13:25;3.92;;;2.80;;
43986;SDS011;29650;47.378;8.300;2023-07-29T09:15:54;5.60;;;3.30;;
43986;SDS011;29650;47.378;8.300;2023-07-29T09:18:22;4.45;;;2.88;;
43986;SDS011;29650;47.378;8.300;2023-07-29T09:20:50;5.10;;;3.17;;
43986;SDS011;29650;47.378;8.300;2023-07-29T09:23:18;4.43;;;2.95;;
43986;SDS011;29650;47.378;8.300;2023-07-29T09:25:46;5.30;;;3.13;;
43986;SDS011;29650;47.378;8.300;2023-07-29T09:28:13;5.97;;;3.42;;
43986;SDS011;29650;47.378;8.300;2023-07-29T09:30:44;4.90;;;3.30;;
43986;SDS011;29650;47.378;8.300;2023-07-29T09:33:12;4.88;;;2.90;;
43986;SDS011;29650;47.378;8.300;2023-07-29T09:35:39;4.38;;;3.40;;
43986;SDS011;29650;47.378;8.300;2023-07-29T09:38:07;4.22;;;2.72;;
43986;SDS011;29650;47.378;8.300;2023-07-29T09:40:35;4.28;;;2.90;;
43986;SDS011;29650;47.378;8.300;2023-07-29T09:43:03;3.22;;;2.47;;
43986;SDS011;29650;47.378;8.300;2023-07-29T09:45:32;4.72;;;2.85;;
43986;SDS011;29650;47.378;8.300;2023-07-29T09:48:00;4.80;;;3.08;;
43986;SDS011;29650;47.378;8.300;2023-07-29T09:50:28;12.05;;;3.03;;
43986;SDS011;29650;47.378;8.300;2023-07-29T09:52:55;4.43;;;2.58;;
43986;SDS011;29650;47.378;8.300;2023-07-29T09:55:25;4.20;;;2.90;;
43986;SDS011;29650;47.378;8.300;2023-07-29T09:57:53;3.40;;;2.90;;
43986;SDS011;29650;47.378;8.300;2023-07-29T10:00:23;6.97;;;3.15;;
43986;SDS011;29650;47.378;8.300;2023-07-29T10:02:50;3.83;;;3.22;;
43986;SDS011;29650;47.378;8.300;2023-07-29T10:05:19;4.45;;;3.30;;
43986;SDS011;29650;47.378;8.300;2023-07-29T10:07:50;5.82;;;3.70;;
43986;SDS011;29650;47.378;8.300;2023-07-29T10:10:20;4.28;;;3.20;;
43986;SDS011;29650;47.378;8.300;2023-07-29T10:12:48;6.80;;;3.45;;
43986;SDS011;29650;47.378;8.300;2023-07-29T10:15:16;4.28;;;3.30;;
43986;SDS011;29650;47.378;8.300;2023-07-29T10:17:45;4.28;;;3.05;;
43986;SDS011;29650;47.378;8.300;2023-07-29T10:20:13;3.47;;;3.00;;
43986;SDS011;29650;47.378;8.300;2023-07-29T10:22:40;5.55;;;2.95;;
43986;SDS011;29650;47.378;8.300;2023-07-29T10:25:10;4.45;;;3.10;;
43986;SDS011;29650;47.378;8.300;2023-07-29T10:27:43;4.55;;;3.30;;
43986;SDS011;29650;47.378;8.300;2023-07-29T10:30:15;4.20;;;2.92;;
43986;SDS011;29650;47.378;8.300;2023-07-29T10:32:43;7.30;;;2.97;;
43986;SDS011;29650;47.378;8.300;2023-07-29T10:35:14;2.92;;;2.60;;
43986;SDS011;29650;47.378;8.300;2023-07-29T10:37:42;4.72;;;2.60;;
43986;SDS011;29650;47.378;8.300;2023-07-29T10:40:16;3.42;;;2.60;;
43986;SDS011;29650;47.378;8.300;2023-07-29T10:43:01;4.15;;;2.97;;
43986;SDS011;29650;47.378;8.300;2023-07-29T10:45:37;5.82;;;2.83;;
43986;SDS011;29650;47.378;8.300;2023-07-29T10:48:05;3.10;;;2.78;;
43986;SDS011;29650;47.378;8.300;2023-07-29T10:50:36;6.10;;;3.05;;
43986;SDS011;29650;47.378;8.300;2023-07-29T10:53:04;3.75;;;2.63;;
43986;SDS011;29650;47.378;8.300;2023-07-29T10:55:32;3.70;;;2.65;;
43986;SDS011;29650;47.378;8.300;2023-07-29T10:58:05;6.13;;;2.97;;
43986;SDS011;29650;47.378;8.300;2023-07-29T11:00:34;7.95;;;3.15;;
43986;SDS011;29650;47.378;8.300;2023-07-29T11:03:03;3.88;;;3.08;;
43986;SDS011;29650;47.378;8.300;2023-07-29T11:05:45;5.43;;;2.88;;
43986;SDS011;29650;47.378;8.300;2023-07-29T11:08:21;5.78;;;2.90;;
43986;SDS011;29650;47.378;8.300;2023-07-29T11:13:40;4.63;;;3.35;;
43986;SDS011;29650;47.378;8.300;2023-07-29T11:16:11;6.15;;;2.78;;
43986;SDS011;29650;47.378;8.300;2023-07-29T11:18:44;4.07;;;2.92;;
43986;SDS011;29650;47.378;8.300;2023-07-29T11:21:14;9.15;;;3.88;;
43986;SDS011;29650;47.378;8.300;2023-07-29T11:23:41;4.72;;;2.47;;
43986;SDS011;29650;47.378;8.300;2023-07-29T11:26:08;6.03;;;3.10;;
43986;SDS011;29650;47.378;8.300;2023-07-29T11:28:38;5.03;;;2.65;;
43986;SDS011;29650;47.378;8.300;2023-07-29T11:31:05;3.92;;;2.90;;
43986;SDS011;29650;47.378;8.300;2023-07-29T11:33:33;2.85;;;2.50;;
43986;SDS011;29650;47.378;8.300;2023-07-29T11:36:04;5.40;;;3.03;;
43986;SDS011;29650;47.378;8.300;2023-07-29T11:38:31;6.50;;;2.88;;
43986;SDS011;29650;47.378;8.300;2023-07-29T11:41:02;2.50;;;2.30;;
43986;SDS011;29650;47.378;8.300;2023-07-29T11:43:29;5.18;;;2.20;;
43986;SDS011;29650;47.378;8.300;2023-07-29T11:45:56;3.42;;;2.47;;
43986;SDS011;29650;47.378;8.300;2023-07-29T11:48:31;3.10;;;2.40;;
43986;SDS011;29650;47.378;8.300;2023-07-29T11:53:28;3.93;;;2.20;;
43986;SDS011;29650;47.378;8.300;2023-07-29T11:55:56;5.15;;;2.58;;
43986;SDS011;29650;47.378;8.300;2023-07-29T11:58:24;4.72;;;2.30;;
43986;SDS011;29650;47.378;8.300;2023-07-29T12:00:52;3.97;;;2.70;;
43986;SDS011;29650;47.378;8.300;2023-07-29T12:03:20;3.10;;;2.33;;
43986;SDS011;29650;47.378;8.300;2023-07-29T12:05:48;3.60;;;2.60;;
43986;SDS011;29650;47.378;8.300;2023-07-29T12:08:16;2.90;;;2.17;;
43986;SDS011;29650;47.378;8.300;2023-07-29T12:10:44;4.03;;;2.40;;
43986;SDS011;29650;47.378;8.300;2023-07-29T12:13:11;3.03;;;2.70;;
43986;SDS011;29650;47.378;8.300;2023-07-29T12:15:38;5.60;;;3.10;;
43986;SDS011;29650;47.378;8.300;2023-07-29T12:18:06;4.20;;;2.65;;
43986;SDS011;29650;47.378;8.300;2023-07-29T12:20:33;4.70;;;2.85;;
43986;SDS011;29650;47.378;8.300;2023-07-29T12:23:00;3.17;;;2.53;;
43986;SDS011;29650;47.378;8.300;2023-07-29T12:25:29;4.07;;;3.08;;
43986;SDS011;29650;47.378;8.300;2023-07-29T12:28:02;4.43;;;2.92;;
43986;SDS011;29650;47.378;8.300;2023-07-29T12:30:30;4.95;;;2.90;;
43986;SDS011;29650;47.378;8.300;2023-07-29T12:32:57;5.60;;;2.90;;
43986;SDS011;29650;47.378;8.300;2023-07-29T12:35:24;4.63;;;2.40;;
43986;SDS011;29650;47.378;8.300;2023-07-29T12:37:59;4.78;;;1.75;;
43986;SDS011;29650;47.378;8.300;2023-07-29T12:40:26;4.40;;;1.63;;
43986;SDS011;29650;47.378;8.300;2023-07-29T12:42:55;2.72;;;1.38;;
43986;SDS011;29650;47.378;8.300;2023-07-29T12:45:22;4.63;;;1.95;;
43986;SDS011;29650;47.378;8.300;2023-07-29T12:47:52;3.53;;;1.70;;
43986;SDS011;29650;47.378;8.300;2023-07-29T12:50:19;3.30;;;1.80;;
43986;SDS011;29650;47.378;8.300;2023-07-29T12:52:46;5.07;;;1.88;;
43986;SDS011;29650;47.378;8.300;2023-07-29T12:55:13;5.95;;;1.92;;
43986;SDS011;29650;47.378;8.300;2023-07-29T12:57:41;3.10;;;1.92;;
43986;SDS011;29650;47.378;8.300;2023-07-29T13:00:11;3.72;;;1.80;;
43986;SDS011;29650;47.378;8.300;2023-07-29T13:02:38;3.83;;;1.77;;
43986;SDS011;29650;47.378;8.300;2023-07-29T13:05:08;3.30;;;1.67;;
43986;SDS011;29650;47.378;8.300;2023-07-29T13:07:36;4.18;;;1.90;;
43986;SDS011;29650;47.378;8.300;2023-07-29T13:10:04;1.77;;;1.23;;
43986;SDS011;29650;47.378;8.300;2023-07-29T13:12:31;3.08;;;1.80;;
43986;SDS011;29650;47.378;8.300;2023-07-29T13:14:59;3.83;;;1.52;;
43986;SDS011;29650;47.378;8.300;2023-07-29T13:17:27;2.28;;;1.48;;
43986;SDS011;29650;47.378;8.300;2023-07-29T13:19:54;3.85;;;1.67;;
43986;SDS011;29650;47.378;8.300;2023-07-29T13:22:21;2.58;;;1.65;;
43986;SDS011;29650;47.378;8.300;2023-07-29T13:24:48;3.35;;;1.42;;
43986;SDS011;29650;47.378;8.300;2023-07-29T13:27:15;2.83;;;1.48;;
43986;SDS011;29650;47.378;8.300;2023-07-29T13:29:42;3.42;;;1.83;;
43986;SDS011;29650;47.378;8.300;2023-07-29T13:32:09;4.97;;;2.30;;
43986;SDS011;29650;47.378;8.300;2023-07-29T13:34:38;3.97;;;2.20;;
43986;SDS011;29650;47.378;8.300;2023-07-29T13:37:05;2.37;;;1.53;;
43986;SDS011;29650;47.378;8.300;2023-07-29T13:39:32;2.60;;;1.48;;
43986;SDS011;29650;47.378;8.300;2023-07-29T13:41:59;2.65;;;1.45;;
43986;SDS011;29650;47.378;8.300;2023-07-29T13:44:26;2.92;;;1.75;;
43986;SDS011;29650;47.378;8.300;2023-07-29T13:46:53;4.18;;;1.60;;
43986;SDS011;29650;47.378;8.300;2023-07-29T13:49:20;2.83;;;2.00;;
43986;SDS011;29650;47.378;8.300;2023-07-29T13:51:48;5.70;;;1.98;;
43986;SDS011;29650;47.378;8.300;2023-07-29T13:54:15;2.65;;;2.00;;
43986;SDS011;29650;47.378;8.300;2023-07-29T13:56:42;3.15;;;1.88;;
43986;SDS011;29650;47.378;8.300;2023-07-29T13:59:09;3.63;;;1.83;;
43986;SDS011;29650;47.378;8.300;2023-07-29T14:01:36;1.92;;;1.75;;
43986;SDS011;29650;47.378;8.300;2023-07-29T14:04:03;4.35;;;1.70;;
43986;SDS011;29650;47.378;8.300;2023-07-29T14:06:30;3.75;;;1.60;;
43986;SDS011;29650;47.378;8.300;2023-07-29T14:08:59;2.42;;;1.95;;
43986;SDS011;29650;47.378;8.300;2023-07-29T14:11:26;3.22;;;2.08;;
43986;SDS011;29650;47.378;8.300;2023-07-29T14:13:53;2.88;;;2.13;;
43986;SDS011;29650;47.378;8.300;2023-07-29T14:16:20;4.00;;;2.10;;
43986;SDS011;29650;47.378;8.300;2023-07-29T14:18:47;3.25;;;1.80;;
43986;SDS011;29650;47.378;8.300;2023-07-29T14:21:14;2.53;;;1.70;;
43986;SDS011;29650;47.378;8.300;2023-07-29T14:23:41;4.35;;;2.60;;
43986;SDS011;29650;47.378;8.300;2023-07-29T14:26:10;2.72;;;1.92;;
43986;SDS011;29650;47.378;8.300;2023-07-29T14:28:36;5.97;;;2.42;;
43986;SDS011;29650;47.378;8.300;2023-07-29T14:31:03;2.20;;;2.00;;
43986;SDS011;29650;47.378;8.300;2023-07-29T14:33:30;5.53;;;1.80;;
43986;SDS011;29650;47.378;8.300;2023-07-29T14:35:57;2.45;;;1.83;;
43986;SDS011;29650;47.378;8.300;2023-07-29T14:38:24;1.98;;;1.77;;
43986;SDS011;29650;47.378;8.300;2023-07-29T14:40:52;3.50;;;1.80;;
43986;SDS011;29650;47.378;8.300;2023-07-29T14:43:21;2.97;;;1.67;;
43986;SDS011;29650;47.378;8.300;2023-07-29T14:45:48;2.40;;;1.92;;
43986;SDS011;29650;47.378;8.300;2023-07-29T14:48:15;2.67;;;1.50;;
43986;SDS011;29650;47.378;8.300;2023-07-29T14:50:42;2.22;;;1.80;;
43986;SDS011;29650;47.378;8.300;2023-07-29T14:53:09;3.15;;;2.00;;
43986;SDS011;29650;47.378;8.300;2023-07-29T14:55:36;3.47;;;1.67;;
43986;SDS011;29650;47.378;8.300;2023-07-29T14:58:04;1.80;;;1.50;;
43986;SDS011;29650;47.378;8.300;2023-07-29T15:00:32;2.22;;;1.90;;
43986;SDS011;29650;47.378;8.300;2023-07-29T15:02:59;2.22;;;1.67;;
43986;SDS011;29650;47.378;8.300;2023-07-29T15:05:26;2.70;;;1.75;;
43986;SDS011;29650;47.378;8.300;2023-07-29T15:07:53;4.30;;;1.60;;
43986;SDS011;29650;47.378;8.300;2023-07-29T15:10:20;2.85;;;2.05;;
43986;SDS011;29650;47.378;8.300;2023-07-29T15:12:47;3.30;;;2.22;;
43986;SDS011;29650;47.378;8.300;2023-07-29T15:15:14;5.43;;;1.92;;
43986;SDS011;29650;47.378;8.300;2023-07-29T15:17:43;3.72;;;1.80;;
43986;SDS011;29650;47.378;8.300;2023-07-29T15:20:10;2.40;;;1.77;;
43986;SDS011;29650;47.378;8.300;2023-07-29T15:22:40;2.92;;;1.88;;
43986;SDS011;29650;47.378;8.300;2023-07-29T15:27:35;3.67;;;2.00;;
43986;SDS011;29650;47.378;8.300;2023-07-29T15:30:02;3.97;;;1.77;;
43986;SDS011;29650;47.378;8.300;2023-07-29T15:32:29;4.07;;;2.28;;
43986;SDS011;29650;47.378;8.300;2023-07-29T15:34:58;5.05;;;2.00;;
43986;SDS011;29650;47.378;8.300;2023-07-29T15:37:25;3.07;;;1.90;;
43986;SDS011;29650;47.378;8.300;2023-07-29T15:39:52;2.92;;;2.13;;
43986;SDS011;29650;47.378;8.300;2023-07-29T15:42:19;4.95;;;2.70;;
43986;SDS011;29650;47.378;8.300;2023-07-29T15:44:46;11.07;;;2.28;;
43986;SDS011;29650;47.378;8.300;2023-07-29T15:47:13;2.60;;;1.88;;
43986;SDS011;29650;47.378;8.300;2023-07-29T15:49:43;3.95;;;2.08;;
43986;SDS011;29650;47.378;8.300;2023-07-29T15:52:12;5.90;;;2.55;;
43986;SDS011;29650;47.378;8.300;2023-07-29T15:57:06;3.05;;;2.05;;
43986;SDS011;29650;47.378;8.300;2023-07-29T15:59:34;4.43;;;2.30;;
43986;SDS011;29650;47.378;8.300;2023-07-29T16:02:01;2.60;;;1.85;;
43986;SDS011;29650;47.378;8.300;2023-07-29T16:04:28;5.13;;;2.65;;
43986;SDS011;29650;47.378;8.300;2023-07-29T16:06:55;5.45;;;2.60;;
43986;SDS011;29650;47.378;8.300;2023-07-29T16:09:23;5.90;;;2.30;;
43986;SDS011;29650;47.378;8.300;2023-07-29T16:11:51;4.80;;;2.58;;
43986;SDS011;29650;47.378;8.300;2023-07-29T16:14:18;4.60;;;2.75;;
43986;SDS011;29650;47.378;8.300;2023-07-29T16:16:45;3.38;;;2.50;;
43986;SDS011;29650;47.378;8.300;2023-07-29T16:19:17;4.63;;;2.65;;
43986;SDS011;29650;47.378;8.300;2023-07-29T16:21:49;4.25;;;2.75;;
43986;SDS011;29650;47.378;8.300;2023-07-29T16:24:16;3.00;;;2.40;;
43986;SDS011;29650;47.378;8.300;2023-07-29T16:26:44;3.13;;;2.70;;
43986;SDS011;29650;47.378;8.300;2023-07-29T16:29:12;4.90;;;3.20;;
43986;SDS011;29650;47.378;8.300;2023-07-29T16:31:39;5.53;;;3.03;;
43986;SDS011;29650;47.378;8.300;2023-07-29T16:34:06;3.65;;;2.88;;